Time;durP1;ratioP1;P1;durP2;ratioP2;P2;SDS_P1;SDS_P2;PMS_P1;PMS_P2;Temp;Humidity;BMP_temperature;BMP_pressure;BME280_temperature;BME280_humidity;BME280_pressure;Samples;Min_cycle;Max_cycle;Signal;HPM_P1;HPM_P2
2022/01/06 00:00:29;;;;;;;9.75;0.98;;;;;;;;;;5043818;28;20029;-84
2022/01/06 00:02:56;;;;;;;2.47;0.68;;;;;;;;;;5031010;28;20056;-84
2022/01/06 00:05:22;;;;;;;2.05;0.82;;;;;;;;;;5035788;28;20062;-85
2022/01/06 00:07:48;;;;;;;5.03;1.40;;;;;;;;;;5033146;28;20057;-84
2022/01/06 00:10:15;;;;;;;5.68;1.30;;;;;;;;;;5037468;28;20033;-84
2022/01/06 00:12:51;;;;;;;3.78;0.98;;;;;;;;;;5037636;28;20022;-84
2022/01/06 00:15:29;;;;;;;3.22;1.48;;;;;;;;;;5038347;28;20013;-83
2022/01/06 00:25:54;;;;;;;2.45;1.30;;;;;;;;;;5052145;28;20039;-84
2022/01/06 00:28:20;;;;;;;6.25;1.77;;;;;;;;;;5043894;28;20031;-85
2022/01/06 00:30:47;;;;;;;5.35;0.95;;;;;;;;;;5024820;28;20108;-85
2022/01/06 00:33:13;;;;;;;4.22;1.00;;;;;;;;;;5032919;28;20051;-84
2022/01/06 00:35:39;;;;;;;9.90;1.40;;;;;;;;;;5032204;28;20029;-84
2022/01/06 00:38:06;;;;;;;5.93;1.45;;;;;;;;;;5022255;28;20022;-84
2022/01/06 00:40:33;;;;;;;3.10;1.35;;;;;;;;;;5035513;28;20491;-84
2022/01/06 00:42:59;;;;;;;6.97;1.80;;;;;;;;;;5040012;28;20056;-83
2022/01/06 00:45:25;;;;;;;3.38;1.00;;;;;;;;;;5038041;28;20415;-84
2022/01/06 00:47:51;;;;;;;1.70;1.00;;;;;;;;;;5047008;28;20024;-83
2022/01/06 00:50:17;;;;;;;2.85;0.95;;;;;;;;;;5032703;28;20022;-84
2022/01/06 00:52:43;;;;;;;3.30;1.20;;;;;;;;;;5032717;28;20474;-84
2022/01/06 00:55:09;;;;;;;4.45;1.38;;;;;;;;;;5037173;28;20032;-85
2022/01/06 00:57:35;;;;;;;5.35;1.10;;;;;;;;;;5058184;28;20119;-83
2022/01/06 01:00:01;;;;;;;5.22;0.82;;;;;;;;;;5042094;28;20091;-84
2022/01/06 01:02:27;;;;;;;1.63;0.90;;;;;;;;;;5027871;28;20115;-84
2022/01/06 01:04:53;;;;;;;3.95;1.15;;;;;;;;;;5035031;28;20025;-84
2022/01/06 01:07:19;;;;;;;3.53;0.77;;;;;;;;;;5047833;28;20453;-84
2022/01/06 01:09:45;;;;;;;5.68;1.08;;;;;;;;;;5022260;28;20428;-84
2022/01/06 01:12:11;;;;;;;2.85;1.27;;;;;;;;;;5043690;28;20097;-83
2022/01/06 01:17:24;;;;;;;2.78;1.00;;;;;;;;;;5043990;28;20096;-83
2022/01/06 01:19:50;;;;;;;3.97;1.40;;;;;;;;;;5029351;28;20476;-84
2022/01/06 01:22:16;;;;;;;1.58;1.00;;;;;;;;;;5020977;28;20036;-84
2022/01/06 01:24:42;;;;;;;4.40;1.65;;;;;;;;;;5030807;28;20029;-85
2022/01/06 01:27:08;;;;;;;5.18;1.60;;;;;;;;;;5026210;28;20061;-84
2022/01/06 01:29:44;;;;;;;4.53;1.10;;;;;;;;;;5046223;28;20479;-84
2022/01/06 01:32:10;;;;;;;4.65;1.00;;;;;;;;;;5036616;28;20008;-84
2022/01/06 01:34:38;;;;;;;5.63;1.10;;;;;;;;;;5039915;28;20037;-85
2022/01/06 01:37:04;;;;;;;3.55;0.80;;;;;;;;;;5019199;28;20409;-84
2022/01/06 01:39:30;;;;;;;2.75;1.02;;;;;;;;;;5037246;28;20025;-83
2022/01/06 01:41:56;;;;;;;1.13;0.82;;;;;;;;;;5025636;28;20037;-83
2022/01/06 01:44:22;;;;;;;4.43;0.90;;;;;;;;;;5017352;28;20029;-83
2022/01/06 01:47:02;;;;;;;5.60;1.08;;;;;;;;;;5061235;28;20746;-83
2022/01/06 01:49:45;;;;;;;4.13;0.80;;;;;;;;;;5037967;28;20029;-84
2022/01/06 01:52:11;;;;;;;3.00;0.80;;;;;;;;;;5034597;28;20033;-83
2022/01/06 01:54:37;;;;;;;2.38;0.80;;;;;;;;;;5030994;28;20026;-83
2022/01/06 01:57:03;;;;;;;0.82;0.50;;;;;;;;;;5031352;28;20527;-83
2022/01/06 01:59:29;;;;;;;2.00;0.80;;;;;;;;;;5018707;28;20065;-83
2022/01/06 02:01:55;;;;;;;4.60;1.67;;;;;;;;;;5038818;28;20129;-84
2022/01/06 02:04:21;;;;;;;4.28;1.33;;;;;;;;;;5019131;28;20033;-83
2022/01/06 02:06:47;;;;;;;1.73;1.08;;;;;;;;;;5054699;28;20025;-83
2022/01/06 02:09:13;;;;;;;3.65;1.00;;;;;;;;;;5027240;28;20026;-83
2022/01/06 02:11:39;;;;;;;2.65;0.75;;;;;;;;;;5021675;28;20362;-83
2022/01/06 02:14:06;;;;;;;3.22;0.90;;;;;;;;;;5057369;28;20063;-84
2022/01/06 02:16:32;;;;;;;2.30;0.90;;;;;;;;;;5025456;28;20374;-85
2022/01/06 02:18:58;;;;;;;2.50;1.58;;;;;;;;;;5030220;28;20052;-84
2022/01/06 02:21:24;;;;;;;7.05;2.13;;;;;;;;;;5058306;28;20078;-84
2022/01/06 02:23:50;;;;;;;7.65;0.95;;;;;;;;;;5033078;28;20036;-85
2022/01/06 02:26:16;;;;;;;2.38;0.82;;;;;;;;;;5036474;28;20025;-84
2022/01/06 02:28:42;;;;;;;4.47;1.60;;;;;;;;;;5060279;28;20021;-84
2022/01/06 02:31:08;;;;;;;0.93;0.70;;;;;;;;;;5072895;28;20095;-84
2022/01/06 02:33:35;;;;;;;4.60;1.17;;;;;;;;;;5041533;28;20139;-85
2022/01/06 02:36:01;;;;;;;1.98;0.77;;;;;;;;;;5067000;28;20046;-83
2022/01/06 02:38:27;;;;;;;4.38;0.88;;;;;;;;;;5079070;28;20115;-84
2022/01/06 02:40:53;;;;;;;4.30;1.00;;;;;;;;;;5033200;28;20029;-84
2022/01/06 02:43:22;;;;;;;5.03;1.35;;;;;;;;;;5021219;28;20022;-83
2022/01/06 02:45:48;;;;;;;3.83;0.90;;;;;;;;;;5031579;28;20026;-83
2022/01/06 02:48:14;;;;;;;1.55;0.88;;;;;;;;;;5055833;28;20052;-83
2022/01/06 02:50:42;;;;;;;2.67;1.20;;;;;;;;;;5071574;28;20025;-84
2022/01/06 02:53:09;;;;;;;1.75;0.90;;;;;;;;;;5022107;28;20065;-84
2022/01/06 02:55:38;;;;;;;6.75;1.85;;;;;;;;;;5045171;28;20460;-84
2022/01/06 02:58:04;;;;;;;4.30;1.00;;;;;;;;;;5029687;28;20051;-83
2022/01/06 03:00:30;;;;;;;1.95;0.90;;;;;;;;;;5025628;28;20060;-83
2022/01/06 03:02:56;;;;;;;2.28;1.05;;;;;;;;;;5029824;28;20029;-84
2022/01/06 03:05:22;;;;;;;6.22;1.40;;;;;;;;;;5029303;28;20124;-83
2022/01/06 03:07:48;;;;;;;1.63;0.85;;;;;;;;;;5041362;28;20029;-83
2022/01/06 03:10:15;;;;;;;5.40;0.90;;;;;;;;;;5022896;28;20574;-82
2022/01/06 03:12:43;;;;;;;2.97;0.80;;;;;;;;;;5049873;28;20017;-84
2022/01/06 03:15:11;;;;;;;1.45;0.60;;;;;;;;;;5051628;28;20018;-84
2022/01/06 03:17:38;;;;;;;3.15;1.70;;;;;;;;;;5024359;28;20140;-84
2022/01/06 03:20:05;;;;;;;3.10;0.80;;;;;;;;;;5034507;28;20029;-83
2022/01/06 03:22:31;;;;;;;3.20;0.70;;;;;;;;;;5023312;28;20112;-83
2022/01/06 03:24:57;;;;;;;4.82;1.65;;;;;;;;;;5054127;28;20055;-83
2022/01/06 03:27:23;;;;;;;0.98;0.63;;;;;;;;;;5052935;28;20025;-83
2022/01/06 03:29:50;;;;;;;2.28;0.70;;;;;;;;;;5058465;28;20021;-83
2022/01/06 03:32:16;;;;;;;1.65;0.90;;;;;;;;;;5027578;28;20100;-84
2022/01/06 03:34:42;;;;;;;2.92;0.70;;;;;;;;;;5034928;28;20182;-84
2022/01/06 03:37:08;;;;;;;4.18;0.80;;;;;;;;;;5039637;28;20029;-84
2022/01/06 03:39:34;;;;;;;1.38;0.68;;;;;;;;;;5034111;28;20033;-83
2022/01/06 03:42:01;;;;;;;2.40;0.90;;;;;;;;;;5029368;28;20029;-83
2022/01/06 03:44:27;;;;;;;0.95;0.60;;;;;;;;;;5037385;28;20040;-83
2022/01/06 03:46:53;;;;;;;2.13;0.88;;;;;;;;;;5023702;28;20026;-83
2022/01/06 03:49:19;;;;;;;1.08;0.68;;;;;;;;;;5023458;28;20024;-83
2022/01/06 03:51:45;;;;;;;2.00;0.50;;;;;;;;;;5034546;28;20024;-84
2022/01/06 03:54:11;;;;;;;0.57;0.52;;;;;;;;;;5045442;28;20031;-83
2022/01/06 03:56:37;;;;;;;3.05;0.70;;;;;;;;;;5064008;28;20111;-83
2022/01/06 03:59:04;;;;;;;3.20;0.60;;;;;;;;;;5040956;28;20005;-83
2022/01/06 04:01:30;;;;;;;3.15;0.70;;;;;;;;;;5056754;28;20048;-83
2022/01/06 04:03:56;;;;;;;3.97;0.80;;;;;;;;;;5056531;28;20017;-84
2022/01/06 04:06:21;;;;;;;3.67;0.60;;;;;;;;;;5026741;28;20594;-84
2022/01/06 04:08:48;;;;;;;3.45;0.90;;;;;;;;;;5050878;28;20070;-84
2022/01/06 04:11:14;;;;;;;3.20;1.20;;;;;;;;;;5026818;28;20036;-84
2022/01/06 04:13:40;;;;;;;3.42;0.90;;;;;;;;;;5036663;28;20035;-84
2022/01/06 04:16:12;;;;;;;1.95;0.52;;;;;;;;;;5057312;28;20384;-83
2022/01/06 04:18:38;;;;;;;0.63;0.55;;;;;;;;;;5058227;28;20048;-86
2022/01/06 04:21:06;;;;;;;2.65;1.17;;;;;;;;;;5038429;28;20491;-83
2022/01/06 04:23:32;;;;;;;2.35;0.47;;;;;;;;;;5021639;28;20032;-84
2022/01/06 04:25:58;;;;;;;1.55;0.50;;;;;;;;;;5045878;28;20024;-83
2022/01/06 04:28:24;;;;;;;1.63;0.60;;;;;;;;;;5038901;28;20107;-83
2022/01/06 04:30:50;;;;;;;2.65;0.65;;;;;;;;;;5048415;28;20021;-83
2022/01/06 04:33:16;;;;;;;2.25;0.45;;;;;;;;;;5031907;28;20021;-83
2022/01/06 04:35:42;;;;;;;0.88;0.45;;;;;;;;;;5025844;28;20448;-83
2022/01/06 04:38:08;;;;;;;1.85;0.80;;;;;;;;;;5029949;28;20025;-83
2022/01/06 04:40:44;;;;;;;1.40;0.50;;;;;;;;;;5029525;28;20093;-83
2022/01/06 04:43:11;;;;;;;3.10;0.82;;;;;;;;;;5037545;28;20029;-83
2022/01/06 04:45:36;;;;;;;1.65;0.73;;;;;;;;;;5027218;28;20047;-83
2022/01/06 04:48:03;;;;;;;1.38;0.68;;;;;;;;;;5026353;28;20021;-84
2022/01/06 04:50:29;;;;;;;1.33;0.55;;;;;;;;;;5033714;28;20029;-83
2022/01/06 04:52:54;;;;;;;1.13;0.55;;;;;;;;;;5037291;28;20021;-84
2022/01/06 04:55:20;;;;;;;3.33;0.50;;;;;;;;;;5024989;28;20029;-83
2022/01/06 04:57:46;;;;;;;1.80;0.70;;;;;;;;;;5043413;28;20025;-83
2022/01/06 05:00:13;;;;;;;1.23;0.55;;;;;;;;;;5041163;28;20461;-83
2022/01/06 05:02:38;;;;;;;10.82;0.85;;;;;;;;;;5022581;28;20048;-84
2022/01/06 05:05:05;;;;;;;1.30;0.50;;;;;;;;;;5038601;28;20029;-84
2022/01/06 05:07:32;;;;;;;3.38;0.77;;;;;;;;;;5039792;28;20423;-83
2022/01/06 05:09:58;;;;;;;2.17;0.65;;;;;;;;;;5033996;28;20567;-84
2022/01/06 05:12:24;;;;;;;1.50;0.47;;;;;;;;;;5033372;28;20128;-83
2022/01/06 05:14:50;;;;;;;2.83;0.80;;;;;;;;;;5021020;28;20032;-84
2022/01/06 05:17:17;;;;;;;2.20;0.98;;;;;;;;;;5019249;28;20071;-83
2022/01/06 05:19:43;;;;;;;2.70;0.70;;;;;;;;;;5029884;28;20033;-83
2022/01/06 05:22:09;;;;;;;4.07;0.88;;;;;;;;;;5030954;28;20044;-84
2022/01/06 05:24:37;;;;;;;1.80;1.23;;;;;;;;;;5037090;28;20555;-84
2022/01/06 05:27:04;;;;;;;1.02;0.70;;;;;;;;;;5034238;28;20532;-84
2022/01/06 05:29:30;;;;;;;1.30;0.80;;;;;;;;;;5026177;28;20022;-84
2022/01/06 05:31:56;;;;;;;2.50;0.80;;;;;;;;;;5017788;28;20080;-84
2022/01/06 05:34:22;;;;;;;2.78;0.68;;;;;;;;;;5016751;28;20034;-87
2022/01/06 05:36:48;;;;;;;1.23;0.50;;;;;;;;;;5021072;28;20025;-87
2022/01/06 05:39:14;;;;;;;5.05;0.60;;;;;;;;;;5024973;28;20085;-88
2022/01/06 05:41:41;;;;;;;5.40;1.10;;;;;;;;;;5037985;28;20478;-88
2022/01/06 05:44:07;;;;;;;2.42;0.60;;;;;;;;;;5016216;28;20028;-87
2022/01/06 05:46:33;;;;;;;1.30;0.63;;;;;;;;;;5022410;28;20022;-87
2022/01/06 05:48:59;;;;;;;1.60;0.50;;;;;;;;;;5036043;28;20028;-87
2022/01/06 05:51:25;;;;;;;4.20;0.73;;;;;;;;;;5017944;28;20025;-87
2022/01/06 05:53:53;;;;;;;1.85;0.60;;;;;;;;;;5020244;28;20054;-87
2022/01/06 05:56:19;;;;;;;1.83;0.57;;;;;;;;;;5046161;28;20036;-84
2022/01/06 05:58:45;;;;;;;7.18;1.15;;;;;;;;;;5054455;28;20503;-84
2022/01/06 06:01:11;;;;;;;2.75;0.63;;;;;;;;;;5034519;28;20100;-84
2022/01/06 06:03:37;;;;;;;1.48;0.63;;;;;;;;;;5043574;28;20091;-84
2022/01/06 06:06:03;;;;;;;2.05;0.52;;;;;;;;;;5057222;28;20036;-84
2022/01/06 06:08:29;;;;;;;5.10;1.35;;;;;;;;;;5034046;28;20116;-83
2022/01/06 06:10:55;;;;;;;2.08;0.63;;;;;;;;;;5061968;28;20060;-83
2022/01/06 06:13:22;;;;;;;2.10;0.70;;;;;;;;;;5057904;28;20380;-83
2022/01/06 06:15:48;;;;;;;0.98;0.50;;;;;;;;;;5052838;28;20582;-83
2022/01/06 06:18:16;;;;;;;2.20;0.95;;;;;;;;;;5036431;28;20167;-83
2022/01/06 06:20:42;;;;;;;1.10;0.70;;;;;;;;;;5048792;28;20036;-83
2022/01/06 06:23:08;;;;;;;7.88;1.05;;;;;;;;;;5060100;28;20510;-83
2022/01/06 06:25:35;;;;;;;1.50;0.90;;;;;;;;;;5060168;28;20024;-83
2022/01/06 06:28:01;;;;;;;1.75;0.60;;;;;;;;;;5051995;28;20036;-83
2022/01/06 06:30:27;;;;;;;2.00;0.70;;;;;;;;;;5039701;28;20029;-83
2022/01/06 06:32:53;;;;;;;1.63;0.68;;;;;;;;;;5039978;28;20044;-83
2022/01/06 06:35:19;;;;;;;4.72;1.20;;;;;;;;;;5024266;28;20017;-83
2022/01/06 06:37:45;;;;;;;4.00;0.80;;;;;;;;;;5040173;28;20021;-84
2022/01/06 06:40:12;;;;;;;2.53;0.70;;;;;;;;;;5025938;28;20025;-84
2022/01/06 06:42:38;;;;;;;3.60;1.00;;;;;;;;;;5039831;28;20495;-84
2022/01/06 06:45:05;;;;;;;2.70;1.05;;;;;;;;;;5046784;28;20453;-84
2022/01/06 06:47:32;;;;;;;2.40;0.75;;;;;;;;;;5024328;28;20116;-83
2022/01/06 06:49:59;;;;;;;4.45;1.05;;;;;;;;;;5022493;28;20021;-84
2022/01/06 06:52:26;;;;;;;2.80;0.70;;;;;;;;;;5033688;28;20072;-85
2022/01/06 06:54:54;;;;;;;3.22;0.80;;;;;;;;;;5032961;28;20063;-85
2022/01/06 06:57:20;;;;;;;3.78;1.05;;;;;;;;;;5039592;28;20017;-85
2022/01/06 06:59:46;;;;;;;4.35;0.90;;;;;;;;;;5039828;28;20028;-85
2022/01/06 07:02:12;;;;;;;1.52;0.80;;;;;;;;;;5039324;28;20056;-86
2022/01/06 07:04:38;;;;;;;7.85;0.90;;;;;;;;;;5021945;28;20126;-86
2022/01/06 07:07:04;;;;;;;4.65;1.10;;;;;;;;;;5034268;28;20036;-85
2022/01/06 07:09:30;;;;;;;6.90;1.00;;;;;;;;;;5041452;28;20110;-85
2022/01/06 07:11:56;;;;;;;4.28;1.02;;;;;;;;;;5055127;28;20017;-85
2022/01/06 07:14:22;;;;;;;2.20;0.90;;;;;;;;;;5059356;28;20029;-84
2022/01/06 07:16:48;;;;;;;6.05;1.20;;;;;;;;;;5031302;28;20030;-84
2022/01/06 07:19:14;;;;;;;4.90;0.70;;;;;;;;;;5037491;28;20081;-84
2022/01/06 07:21:40;;;;;;;5.07;0.90;;;;;;;;;;5048921;28;20041;-84
2022/01/06 07:24:06;;;;;;;6.68;1.00;;;;;;;;;;5032884;28;20451;-84
2022/01/06 07:26:32;;;;;;;1.33;0.80;;;;;;;;;;5038353;28;20122;-84
2022/01/06 07:28:58;;;;;;;3.78;1.15;;;;;;;;;;5038703;28;20512;-83
2022/01/06 07:31:24;;;;;;;4.82;1.15;;;;;;;;;;5047885;28;20025;-84
2022/01/06 07:33:50;;;;;;;2.75;0.88;;;;;;;;;;5039188;28;20100;-85
2022/01/06 07:36:16;;;;;;;1.95;0.98;;;;;;;;;;5048811;28;20385;-83
2022/01/06 07:38:42;;;;;;;6.45;0.90;;;;;;;;;;5027569;28;20392;-83
2022/01/06 07:41:08;;;;;;;2.42;1.00;;;;;;;;;;5033696;28;20029;-83
2022/01/06 07:43:34;;;;;;;1.50;0.93;;;;;;;;;;5033832;28;20030;-83
2022/01/06 07:46:00;;;;;;;1.88;1.00;;;;;;;;;;5037942;28;20098;-83
2022/01/06 07:48:47;;;;;;;0.98;0.77;;;;;;;;;;5028204;28;20124;-83
2022/01/06 07:51:13;;;;;;;5.15;0.75;;;;;;;;;;5054773;28;20021;-83
2022/01/06 07:53:39;;;;;;;3.53;1.13;;;;;;;;;;5044729;28;20024;-83
2022/01/06 07:56:05;;;;;;;2.28;1.00;;;;;;;;;;5031773;28;20087;-84
2022/01/06 07:58:31;;;;;;;6.88;1.35;;;;;;;;;;5026734;28;20037;-84
2022/01/06 08:00:57;;;;;;;6.00;0.98;;;;;;;;;;5035372;28;20072;-83
2022/01/06 08:03:23;;;;;;;5.72;1.13;;;;;;;;;;5055369;28;20127;-84
2022/01/06 08:05:48;;;;;;;2.50;0.98;;;;;;;;;;5046984;28;20044;-84
2022/01/06 08:08:14;;;;;;;2.75;1.35;;;;;;;;;;5038393;28;20032;-83
2022/01/06 08:10:40;;;;;;;4.00;1.48;;;;;;;;;;5056333;28;20702;-84
2022/01/06 08:13:06;;;;;;;1.33;0.80;;;;;;;;;;5038344;28;20024;-84
2022/01/06 08:15:32;;;;;;;1.65;1.00;;;;;;;;;;5037308;28;20025;-83
2022/01/06 08:17:58;;;;;;;4.80;0.93;;;;;;;;;;5037905;28;20045;-83
2022/01/06 08:20:24;;;;;;;2.55;1.00;;;;;;;;;;5032616;28;20045;-84
2022/01/06 08:22:50;;;;;;;1.17;0.85;;;;;;;;;;5019202;28;20041;-83
2022/01/06 08:25:16;;;;;;;1.35;0.90;;;;;;;;;;5049316;28;20461;-84
2022/01/06 08:27:42;;;;;;;3.55;1.23;;;;;;;;;;5031951;28;20115;-85
2022/01/06 08:30:09;;;;;;;4.50;1.27;;;;;;;;;;5037837;28;20104;-84
2022/01/06 08:32:35;;;;;;;5.35;1.23;;;;;;;;;;5055331;28;20079;-85
2022/01/06 08:35:14;;;;;;;2.63;1.23;;;;;;;;;;5067284;28;20362;-51
2022/01/06 08:37:39;;;;;;;1.42;0.95;;;;;;;;;;5049682;28;20107;-50
2022/01/06 08:40:06;;;;;;;4.65;1.10;;;;;;;;;;5048470;28;20100;-50
2022/01/06 08:42:32;;;;;;;2.13;0.90;;;;;;;;;;5045528;28;20451;-51
2022/01/06 08:44:58;;;;;;;5.00;1.40;;;;;;;;;;5043987;28;20028;-53
2022/01/06 08:47:24;;;;;;;6.47;1.10;;;;;;;;;;5049208;28;20517;-51
2022/01/06 08:49:50;;;;;;;2.20;1.10;;;;;;;;;;5047919;28;20033;-52
2022/01/06 08:52:16;;;;;;;2.75;1.13;;;;;;;;;;5048022;28;20699;-53
2022/01/06 08:54:42;;;;;;;3.08;1.08;;;;;;;;;;5047932;28;20104;-49
2022/01/06 08:57:08;;;;;;;3.17;1.65;;;;;;;;;;5048679;28;20025;-51
2022/01/06 08:59:34;;;;;;;6.38;1.58;;;;;;;;;;5047239;28;20022;-54
2022/01/06 09:02:00;;;;;;;1.58;0.93;;;;;;;;;;5040961;28;20025;-52
2022/01/06 09:04:26;;;;;;;5.35;1.05;;;;;;;;;;5048643;28;20478;-50
2022/01/06 09:06:52;;;;;;;5.40;1.00;;;;;;;;;;5048653;28;20029;-49
2022/01/06 09:09:19;;;;;;;4.57;1.30;;;;;;;;;;5053703;28;20027;-50
2022/01/06 09:11:45;;;;;;;5.63;1.17;;;;;;;;;;5051688;28;20036;-49
2022/01/06 09:14:12;;;;;;;1.70;0.80;;;;;;;;;;5047444;28;20029;-53
2022/01/06 09:16:38;;;;;;;2.53;0.77;;;;;;;;;;5048873;28;20718;-49
2022/01/06 09:19:04;;;;;;;1.55;1.00;;;;;;;;;;5043871;28;20026;-54
2022/01/06 09:21:30;;;;;;;4.35;1.38;;;;;;;;;;5045981;28;20037;-49
2022/01/06 09:23:59;;;;;;;1.70;1.10;;;;;;;;;;5048291;28;20396;-52
2022/01/06 09:26:26;;;;;;;5.05;1.42;;;;;;;;;;5044780;28;20026;-53
2022/01/06 09:28:52;;;;;;;5.75;1.20;;;;;;;;;;5042996;28;20424;-53
2022/01/06 09:31:18;;;;;;;2.60;1.10;;;;;;;;;;5045080;28;20037;-53
2022/01/06 09:33:44;;;;;;;2.13;1.13;;;;;;;;;;5043377;28;20124;-49
2022/01/06 09:36:10;;;;;;;3.58;1.00;;;;;;;;;;5047637;28;20033;-50
2022/01/06 09:38:36;;;;;;;4.07;1.35;;;;;;;;;;5043226;28;20096;-52
2022/01/06 09:41:05;;;;;;;2.38;0.82;;;;;;;;;;5042757;28;20104;-49
2022/01/06 09:43:32;;;;;;;4.03;1.13;;;;;;;;;;5043087;28;20036;-51
2022/01/06 09:46:01;;;;;;;1.92;0.90;;;;;;;;;;5031645;28;20069;-53
2022/01/06 09:48:28;;;;;;;2.13;1.15;;;;;;;;;;5022525;28;20363;-54
2022/01/06 09:50:54;;;;;;;4.05;1.67;;;;;;;;;;5033494;28;20026;-54
2022/01/06 09:53:21;;;;;;;3.38;1.00;;;;;;;;;;5031965;28;20029;-52
2022/01/06 09:55:47;;;;;;;3.75;1.45;;;;;;;;;;5033831;28;20018;-52
2022/01/06 09:58:15;;;;;;;4.07;0.95;;;;;;;;;;5034510;28;20044;-49
2022/01/06 10:00:41;;;;;;;3.08;0.88;;;;;;;;;;5033934;28;20490;-51
2022/01/06 10:03:07;;;;;;;4.30;0.93;;;;;;;;;;5024181;28;20145;-50
2022/01/06 10:05:44;;;;;;;3.90;1.10;;;;;;;;;;5032639;28;20112;-51
2022/01/06 10:08:11;;;;;;;1.73;0.75;;;;;;;;;;5034381;28;20025;-53
2022/01/06 10:10:37;;;;;;;5.10;1.05;;;;;;;;;;5033700;28;20782;-51
2022/01/06 10:13:08;;;;;;;1.27;0.90;;;;;;;;;;5032857;28;21979;-53
2022/01/06 10:15:36;;;;;;;4.65;1.25;;;;;;;;;;5029970;28;20026;-50
2022/01/06 10:18:12;;;;;;;4.28;0.70;;;;;;;;;;5019142;28;20033;-50
2022/01/06 10:20:38;;;;;;;5.10;0.77;;;;;;;;;;5032454;28;20068;-51
2022/01/06 10:23:09;;;;;;;3.47;0.90;;;;;;;;;;5026845;28;20033;-55
2022/01/06 10:25:38;;;;;;;1.23;0.68;;;;;;;;;;5034015;28;20029;-50
2022/01/06 10:28:13;;;;;;;5.88;0.95;;;;;;;;;;5033843;28;20025;-50
2022/01/06 10:30:47;;;;;;;3.92;0.70;;;;;;;;;;5033742;28;20036;-50
2022/01/06 10:33:13;;;;;;;1.73;0.65;;;;;;;;;;5030040;28;20049;-51
2022/01/06 10:35:39;;;;;;;1.30;0.63;;;;;;;;;;5022251;28;20021;-52
2022/01/06 10:38:05;;;;;;;1.00;0.52;;;;;;;;;;5032856;28;20029;-50
2022/01/06 10:40:31;;;;;;;3.58;0.75;;;;;;;;;;5033750;28;20424;-53
2022/01/06 10:42:57;;;;;;;4.25;0.68;;;;;;;;;;5031338;28;20351;-53
2022/01/06 10:45:25;;;;;;;2.88;1.10;;;;;;;;;;5030031;28;20033;-50
2022/01/06 10:47:55;;;;;;;2.55;0.65;;;;;;;;;;5023120;28;20347;-50
2022/01/06 10:50:26;;;;;;;3.95;0.60;;;;;;;;;;5029226;28;20029;-53
2022/01/06 10:52:54;;;;;;;0.88;0.47;;;;;;;;;;5026268;28;20022;-49
2022/01/06 10:55:21;;;;;;;2.08;0.70;;;;;;;;;;5027520;28;20438;-50
2022/01/06 10:57:53;;;;;;;2.83;0.63;;;;;;;;;;5028867;28;20105;-54
2022/01/06 11:00:20;;;;;;;3.97;0.85;;;;;;;;;;5028674;28;20059;-52
2022/01/06 11:02:46;;;;;;;2.42;0.63;;;;;;;;;;5026932;28;20144;-50
2022/01/06 11:05:12;;;;;;;5.65;0.95;;;;;;;;;;5024061;28;20032;-49
2022/01/06 11:07:38;;;;;;;3.60;0.80;;;;;;;;;;5028943;28;20462;-54
2022/01/06 11:10:23;;;;;;;1.02;0.63;;;;;;;;;;5027094;28;20034;-50
2022/01/06 11:12:50;;;;;;;1.17;0.70;;;;;;;;;;5020636;28;20105;-51
2022/01/06 11:15:16;;;;;;;1.92;0.85;;;;;;;;;;5023789;28;20061;-56
2022/01/06 11:17:46;;;;;;;1.48;0.30;;;;;;;;;;5025364;28;20025;-50
2022/01/06 11:20:12;;;;;;;1.35;0.40;;;;;;;;;;5022887;28;20095;-52
2022/01/06 11:22:48;;;;;;;7.38;1.48;;;;;;;;;;5023743;28;20465;-56
2022/01/06 11:25:14;;;;;;;1.60;0.75;;;;;;;;;;5023215;28;20603;-53
2022/01/06 11:27:40;;;;;;;1.85;0.47;;;;;;;;;;5032903;28;20038;-52
2022/01/06 11:30:08;;;;;;;1.17;0.30;;;;;;;;;;5032163;28;20420;-56
2022/01/06 11:32:34;;;;;;;2.33;0.28;;;;;;;;;;5035817;28;20049;-54
2022/01/06 11:35:02;;;;;;;1.67;0.38;;;;;;;;;;5027377;28;20049;-57
2022/01/06 11:37:39;;;;;;;2.15;0.40;;;;;;;;;;5021868;28;20048;-52
2022/01/06 11:40:05;;;;;;;0.75;0.35;;;;;;;;;;5029838;28;20022;-52
2022/01/06 11:42:31;;;;;;;1.95;0.50;;;;;;;;;;5029346;28;20592;-55
2022/01/06 11:44:58;;;;;;;1.67;0.57;;;;;;;;;;5022345;28;20034;-52
2022/01/06 11:47:30;;;;;;;0.75;0.45;;;;;;;;;;5027273;28;20476;-55
2022/01/06 11:50:06;;;;;;;0.93;0.20;;;;;;;;;;5028242;28;20042;-51
2022/01/06 11:52:32;;;;;;;0.40;0.38;;;;;;;;;;5028895;28;20104;-52
2022/01/06 11:54:58;;;;;;;0.70;0.35;;;;;;;;;;5022397;28;20018;-52
2022/01/06 11:57:34;;;;;;;3.17;1.00;;;;;;;;;;5028137;28;20052;-53
2022/01/06 12:00:01;;;;;;;0.98;0.30;;;;;;;;;;5027174;28;20013;-52
2022/01/06 12:02:27;;;;;;;1.08;0.40;;;;;;;;;;5031552;28;20018;-52
2022/01/06 12:05:00;;;;;;;0.63;0.20;;;;;;;;;;5032511;28;20029;-52
2022/01/06 12:07:26;;;;;;;2.30;0.50;;;;;;;;;;5031747;28;20025;-52
2022/01/06 12:10:06;;;;;;;5.53;0.57;;;;;;;;;;5023118;28;20409;-53
2022/01/06 12:12:33;;;;;;;1.80;0.45;;;;;;;;;;5034863;28;20037;-51
2022/01/06 12:15:25;;;;;;;4.88;0.70;;;;;;;;;;5030260;28;20121;-51
2022/01/06 12:17:52;;;;;;;2.78;0.50;;;;;;;;;;5030497;28;20075;-53
2022/01/06 12:20:19;;;;;;;0.68;0.30;;;;;;;;;;5018790;28;20028;-52
2022/01/06 12:22:45;;;;;;;0.93;0.30;;;;;;;;;;5029925;28;20040;-56
2022/01/06 12:25:11;;;;;;;1.02;0.30;;;;;;;;;;5020613;28;20041;-55
2022/01/06 12:27:44;;;;;;;1.10;0.52;;;;;;;;;;5024319;28;20035;-52
2022/01/06 12:30:11;;;;;;;1.77;0.45;;;;;;;;;;5027887;28;20025;-52
2022/01/06 12:32:37;;;;;;;1.00;0.30;;;;;;;;;;5019696;28;20034;-53
2022/01/06 12:35:03;;;;;;;1.50;0.32;;;;;;;;;;5025743;28;20173;-52
2022/01/06 12:37:29;;;;;;;1.40;0.32;;;;;;;;;;5020183;28;20026;-49
2022/01/06 12:39:56;;;;;;;0.98;0.15;;;;;;;;;;5029218;28;20477;-54
2022/01/06 12:42:23;;;;;;;2.00;0.50;;;;;;;;;;5027605;28;20030;-51
2022/01/06 12:44:49;;;;;;;0.90;0.20;;;;;;;;;;5021732;28;20474;-51
2022/01/06 12:47:15;;;;;;;1.25;0.52;;;;;;;;;;5026414;28;20060;-50
2022/01/06 12:49:41;;;;;;;1.55;0.50;;;;;;;;;;5020330;28;20036;-50
2022/01/06 12:52:08;;;;;;;2.28;0.60;;;;;;;;;;5030210;28;20033;-50
2022/01/06 12:54:35;;;;;;;0.82;0.30;;;;;;;;;;5021408;28;20104;-50
2022/01/06 12:57:02;;;;;;;2.15;0.70;;;;;;;;;;5017908;28;20046;-49
2022/01/06 12:59:34;;;;;;;0.63;0.30;;;;;;;;;;5026764;28;20112;-52
2022/01/06 13:02:02;;;;;;;0.90;0.30;;;;;;;;;;5016020;28;20263;-51
2022/01/06 13:04:29;;;;;;;3.10;0.55;;;;;;;;;;5024329;28;20112;-51
2022/01/06 13:06:56;;;;;;;4.57;0.40;;;;;;;;;;5021258;28;20105;-54
2022/01/06 13:09:22;;;;;;;1.02;0.40;;;;;;;;;;5020902;28;20061;-52
2022/01/06 13:11:51;;;;;;;0.75;0.35;;;;;;;;;;5025584;28;20087;-55
2022/01/06 13:14:25;;;;;;;2.00;0.70;;;;;;;;;;5020340;28;20476;-54
2022/01/06 13:16:51;;;;;;;2.42;0.82;;;;;;;;;;5026512;28;20052;-55
2022/01/06 13:19:17;;;;;;;0.55;0.30;;;;;;;;;;5024916;28;20056;-55
2022/01/06 13:21:57;;;;;;;0.45;0.40;;;;;;;;;;5032175;28;20108;-54
2022/01/06 13:24:30;;;;;;;1.17;0.70;;;;;;;;;;5035313;28;20032;-54
2022/01/06 13:26:58;;;;;;;3.05;0.40;;;;;;;;;;5034282;28;20033;-56
2022/01/06 13:29:34;;;;;;;2.35;0.65;;;;;;;;;;5034919;28;20083;-54
2022/01/06 13:32:06;;;;;;;1.27;0.60;;;;;;;;;;5034729;28;20037;-56
2022/01/06 13:34:33;;;;;;;2.42;1.13;;;;;;;;;;5034815;28;20048;-55
2022/01/06 13:37:05;;;;;;;2.90;0.63;;;;;;;;;;5032770;28;20034;-51
2022/01/06 13:39:51;;;;;;;2.03;0.57;;;;;;;;;;5034790;28;20033;-55
2022/01/06 13:42:24;;;;;;;2.08;0.60;;;;;;;;;;5034619;28;20552;-55
2022/01/06 13:44:53;;;;;;;0.60;0.45;;;;;;;;;;5033805;28;20734;-54
2022/01/06 13:47:28;;;;;;;5.47;0.73;;;;;;;;;;5034826;28;20033;-53
2022/01/06 13:52:46;;;;;;;3.03;0.60;;;;;;;;;;5032907;28;20080;-51
2022/01/06 13:55:15;;;;;;;5.63;0.88;;;;;;;;;;5028048;28;20037;-56
2022/01/06 13:57:41;;;;;;;1.58;0.40;;;;;;;;;;5026422;28;20030;-56
2022/01/06 14:00:08;;;;;;;0.75;0.40;;;;;;;;;;5025053;28;20461;-55
2022/01/06 14:02:34;;;;;;;1.50;0.70;;;;;;;;;;5033003;28;20030;-56
2022/01/06 14:05:06;;;;;;;2.28;0.63;;;;;;;;;;5026797;28;20335;-55
2022/01/06 14:07:32;;;;;;;1.73;0.80;;;;;;;;;;5028213;28;20075;-54
2022/01/06 14:09:58;;;;;;;3.95;0.52;;;;;;;;;;5024805;28;20033;-55
2022/01/06 14:12:24;;;;;;;1.65;0.60;;;;;;;;;;5027080;28;20033;-54
2022/01/06 14:14:50;;;;;;;2.28;0.55;;;;;;;;;;5026539;28;20591;-52
2022/01/06 14:17:16;;;;;;;2.05;0.65;;;;;;;;;;5031825;28;20075;-56
2022/01/06 14:19:42;;;;;;;2.22;0.93;;;;;;;;;;5034112;28;20053;-51
2022/01/06 14:22:08;;;;;;;4.03;0.80;;;;;;;;;;5031058;28;20034;-53
2022/01/06 14:24:35;;;;;;;2.90;0.80;;;;;;;;;;5034065;28;20025;-53
2022/01/06 14:27:02;;;;;;;4.30;0.77;;;;;;;;;;5032223;28;20040;-51
2022/01/06 14:29:28;;;;;;;0.95;0.80;;;;;;;;;;5018709;28;20060;-56
2022/01/06 14:31:55;;;;;;;3.13;0.90;;;;;;;;;;5023699;28;20450;-54
2022/01/06 14:34:21;;;;;;;3.47;0.60;;;;;;;;;;5031061;28;20057;-50
2022/01/06 14:36:47;;;;;;;0.52;0.40;;;;;;;;;;5028873;28;20123;-51
2022/01/06 14:39:13;;;;;;;2.08;0.50;;;;;;;;;;5026411;28;20096;-53
2022/01/06 14:41:39;;;;;;;0.57;0.47;;;;;;;;;;5020802;28;20041;-51
2022/01/06 14:44:05;;;;;;;1.33;0.60;;;;;;;;;;5025539;28;20532;-54
2022/01/06 14:46:31;;;;;;;1.42;0.80;;;;;;;;;;5027413;28;20033;-51
2022/01/06 14:48:57;;;;;;;1.95;0.68;;;;;;;;;;5017828;28;20101;-51
2022/01/06 14:51:23;;;;;;;2.13;0.63;;;;;;;;;;5029652;28;20029;-51
2022/01/06 14:53:49;;;;;;;2.85;0.70;;;;;;;;;;5033218;28;20033;-51
2022/01/06 14:56:16;;;;;;;2.47;0.90;;;;;;;;;;5031745;28;20025;-51